Grantsboro, North Carolina
Current Conditions -  °F | °C
As of 7:54 AM on Thursday 30 Oct 2014 (Local Time) from KEWN Reporting Station
Overcast Overcast  
Wind Chill: 58°   Ceiling: 3500
Heat Index: 58°   Visibility: 10mi
Dew Point: 51°   Wind: 7mph
Humidity: 78%   Direction: 30°NNE
Pressure: 30"   Gusts: NA
Location:  35.14°N, 76.84°W
Report Text: KEWN 301154Z 03006KT 10SM OVC035 14/11 A3000 RMK AO2 SLP159 60015 70021 T01440106 10178 20144 53009
Loading
Personal Weather Stations






























Interactive Weather Map
Tropical Storm Tracking
New forecast layout! Learn more

10-Day Weather Forecast

Advertisements
Track Severe Weather on mobile